Time;durP1;ratioP1;P1;durP2;ratioP2;P2;SDS_P1;SDS_P2;PMS_P1;PMS_P2;Temp;Humidity;BMP_temperature;BMP_pressure;BME280_temperature;BME280_humidity;BME280_pressure;Samples;Min_cycle;Max_cycle;Signal;HPM_P1;HPM_P2
2022/08/08 00:00:00;;;;;;;0.95;0.70;;;16.50;85.90;;;;;;5051249;28;20210;-58
2022/08/08 00:02:34;;;;;;;2.05;0.70;;;16.40;86.90;;;;;;5051933;28;20251;-57
2022/08/08 00:05:10;;;;;;;1.30;0.77;;;16.40;87.20;;;;;;5051495;28;20205;-58
2022/08/08 00:07:47;;;;;;;0.93;0.80;;;16.30;87.10;;;;;;5051473;28;20205;-57
2022/08/08 00:10:20;;;;;;;2.30;0.70;;;16.30;87.60;;;;;;5051204;28;20594;-57
2022/08/08 00:12:52;;;;;;;2.03;0.90;;;16.30;87.90;;;;;;5051668;28;20581;-57
2022/08/08 00:15:23;;;;;;;1.20;0.90;;;16.30;88.20;;;;;;5051407;28;20236;-57
2022/08/08 00:17:56;;;;;;;2.75;0.70;;;16.40;88.30;;;;;;5051499;28;20209;-57
2022/08/08 00:20:31;;;;;;;2.20;0.87;;;16.40;88.20;;;;;;5051155;28;20206;-58
2022/08/08 00:23:02;;;;;;;1.00;0.90;;;16.40;87.80;;;;;;5051596;28;20232;-58
2022/08/08 00:25:35;;;;;;;1.00;0.80;;;16.50;87.60;;;;;;5054491;28;20230;-58
2022/08/08 00:28:07;;;;;;;1.55;1.00;;;16.50;87.30;;;;;;5055237;28;20259;-58
2022/08/08 00:30:37;;;;;;;1.60;1.00;;;16.60;87.40;;;;;;5054867;28;20209;-58
2022/08/08 00:33:11;;;;;;;1.25;0.85;;;16.60;87.50;;;;;;5054910;28;20259;-58
2022/08/08 00:35:51;;;;;;;3.25;0.98;;;16.70;87.20;;;;;;5054980;28;20283;-58
2022/08/08 00:38:29;;;;;;;1.90;1.15;;;16.70;86.50;;;;;;5054889;28;20258;-58
2022/08/08 00:41:19;;;;;;;1.23;0.80;;;16.80;86.10;;;;;;5054808;28;20292;-58
2022/08/08 00:44:32;;;;;;;0.97;0.70;;;16.80;85.90;;;;;;5055022;28;20288;-58
2022/08/08 00:47:46;;;;;;;1.35;0.80;;;16.90;86.00;;;;;;5054905;28;20230;-58
2022/08/08 00:50:57;;;;;;;6.20;1.00;;;16.90;86.30;;;;;;5054445;28;20712;-58
2022/08/08 00:53:37;;;;;;;1.65;0.93;;;16.80;86.90;;;;;;4993081;28;20298;-58
2022/08/08 00:56:42;;;;;;;1.07;0.80;;;16.90;87.70;;;;;;5045171;28;20236;-58
2022/08/08 00:59:53;;;;;;;1.30;0.85;;;16.80;87.90;;;;;;5044137;28;20206;-59
2022/08/08 01:02:50;;;;;;;0.80;0.80;;;16.80;87.90;;;;;;5054401;28;20205;-57
2022/08/08 01:06:02;;;;;;;2.37;1.03;;;16.60;88.10;;;;;;5054525;28;20225;-57
2022/08/08 01:08:57;;;;;;;2.78;0.80;;;16.50;88.30;;;;;;5054228;28;20542;-59
2022/08/08 01:12:01;;;;;;;1.50;1.20;;;16.40;88.90;;;;;;5054478;28;20205;-57
2022/08/08 01:15:05;;;;;;;2.30;0.82;;;16.40;89.40;;;;;;5054204;28;20213;-58
2022/08/08 01:18:15;;;;;;;0.70;0.70;;;16.40;89.70;;;;;;5054239;28;20202;-59
2022/08/08 01:21:12;;;;;;;1.20;0.90;;;16.40;89.80;;;;;;5054212;28;20212;-58
2022/08/08 01:24:14;;;;;;;1.63;0.80;;;16.40;90.00;;;;;;5048865;28;20251;-57
2022/08/08 01:27:02;;;;;;;0.70;0.70;;;16.40;90.20;;;;;;5054036;28;20228;-59
2022/08/08 01:29:39;;;;;;;0.63;0.63;;;16.30;90.40;;;;;;5053838;28;20213;-57
2022/08/08 01:32:40;;;;;;;0.73;0.73;;;16.20;90.70;;;;;;5054017;28;20263;-59
2022/08/08 01:35:57;;;;;;;0.75;0.75;;;16.10;91.00;;;;;;5053332;28;20704;-59
2022/08/08 01:38:52;;;;;;;1.80;0.73;;;16.10;91.10;;;;;;5054043;28;20259;-57
2022/08/08 01:41:26;;;;;;;1.83;1.00;;;16.00;91.40;;;;;;5054029;28;20213;-57
2022/08/08 01:44:02;;;;;;;1.03;0.90;;;15.90;91.70;;;;;;5053803;28;20216;-57
2022/08/08 01:46:49;;;;;;;1.65;0.85;;;15.90;91.60;;;;;;5053545;28;20282;-58
2022/08/08 01:49:21;;;;;;;0.83;0.80;;;15.90;91.80;;;;;;5053603;28;20653;-58
2022/08/08 01:51:59;;;;;;;0.93;0.85;;;15.70;92.00;;;;;;5053688;28;20221;-58
2022/08/08 01:54:47;;;;;;;2.03;0.93;;;15.80;91.70;;;;;;5053524;28;20307;-58
2022/08/08 01:57:26;;;;;;;1.20;0.75;;;15.80;91.40;;;;;;5053416;28;20265;-58
2022/08/08 02:00:08;;;;;;;0.97;0.80;;;15.70;91.70;;;;;;5053473;28;20209;-57
2022/08/08 02:02:50;;;;;;;1.17;0.80;;;15.70;92.00;;;;;;5053664;28;20214;-57
2022/08/08 02:05:27;;;;;;;2.73;0.80;;;15.80;92.00;;;;;;5053779;28;20246;-57
2022/08/08 02:08:08;;;;;;;2.83;0.90;;;15.80;92.10;;;;;;5053239;28;20206;-57
2022/08/08 02:10:59;;;;;;;1.67;1.10;;;15.90;92.00;;;;;;5053107;28;20669;-57
2022/08/08 02:13:32;;;;;;;2.63;0.80;;;15.90;92.10;;;;;;5053477;28;20217;-57
2022/08/08 02:16:09;;;;;;;0.70;0.70;;;15.90;92.10;;;;;;5053045;28;20320;-58
2022/08/08 02:18:42;;;;;;;1.42;1.02;;;15.90;92.20;;;;;;5053227;28;20213;-57
2022/08/08 02:24:12;;;;;;;2.23;1.07;;;15.90;92.20;;;;;;5052819;28;20332;-57
2022/08/08 02:26:48;;;;;;;1.97;1.10;;;15.80;92.30;;;;;;5052822;28;20229;-57
2022/08/08 02:29:40;;;;;;;1.80;1.20;;;15.70;92.50;;;;;;5052580;28;20216;-57
2022/08/08 02:32:18;;;;;;;0.87;0.80;;;15.60;92.70;;;;;;5045841;28;20210;-57
2022/08/08 02:35:17;;;;;;;1.10;0.90;;;15.60;92.90;;;;;;5052805;28;20209;-57
2022/08/08 02:38:17;;;;;;;3.13;0.80;;;15.60;92.70;;;;;;4998095;28;20288;-57
2022/08/08 02:41:03;;;;;;;0.83;0.80;;;15.50;92.70;;;;;;5053784;28;20209;-58
2022/08/08 02:44:01;;;;;;;1.80;0.80;;;15.60;92.80;;;;;;5053259;28;20209;-57
2022/08/08 02:46:43;;;;;;;1.30;0.90;;;15.50;93.00;;;;;;5052565;28;20229;-57
2022/08/08 02:49:40;;;;;;;3.13;0.82;;;15.50;93.20;;;;;;5053514;28;20201;-59
2022/08/08 02:52:50;;;;;;;1.00;0.90;;;15.60;93.20;;;;;;5053954;28;20259;-56
2022/08/08 02:55:41;;;;;;;1.00;0.70;;;15.60;93.30;;;;;;4991957;28;20651;-57
2022/08/08 02:58:48;;;;;;;2.13;1.60;;;15.60;93.50;;;;;;4991897;28;20557;-58
2022/08/08 03:01:55;;;;;;;2.03;1.73;;;15.60;93.30;;;;;;5044962;28;20623;-57
2022/08/08 03:05:06;;;;;;;1.30;1.10;;;15.70;93.30;;;;;;5036052;28;20255;-57
2022/08/08 03:08:17;;;;;;;2.17;1.57;;;15.70;93.20;;;;;;5015073;28;20810;-57
2022/08/08 03:11:22;;;;;;;1.70;1.10;;;15.70;93.20;;;;;;5052116;28;20205;-56
2022/08/08 03:14:28;;;;;;;2.47;1.70;;;15.60;93.20;;;;;;5052087;28;20625;-57
2022/08/08 03:17:00;;;;;;;0.80;0.80;;;15.60;93.30;;;;;;5052107;28;20692;-56
2022/08/08 03:20:04;;;;;;;1.23;0.80;;;15.60;93.50;;;;;;5051955;28;20263;-56
2022/08/08 03:22:30;;;;;;;1.10;1.00;;;15.60;93.70;;;;;;5052335;28;20215;-57
2022/08/08 03:25:00;;;;;;;0.90;0.80;;;15.60;93.90;;;;;;5052006;28;20693;-56
2022/08/08 03:27:33;;;;;;;1.20;1.10;;;15.60;94.20;;;;;;5052097;28;20227;-57
2022/08/08 03:30:04;;;;;;;1.83;1.03;;;15.50;94.30;;;;;;5051754;28;20209;-56
2022/08/08 03:35:17;;;;;;;1.83;1.00;;;15.30;94.90;;;;;;5051928;28;20220;-56
2022/08/08 03:37:45;;;;;;;2.50;0.93;;;15.20;95.20;;;;;;5051836;28;20225;-57
2022/08/08 03:40:13;;;;;;;1.10;1.00;;;15.20;95.50;;;;;;5051477;28;20739;-57
2022/08/08 03:42:41;;;;;;;1.33;0.90;;;15.20;95.70;;;;;;5051684;28;20271;-57
2022/08/08 03:45:17;;;;;;;1.40;1.10;;;15.20;95.80;;;;;;5051313;28;20739;-56
2022/08/08 03:47:44;;;;;;;3.20;1.33;;;15.10;95.80;;;;;;5067251;22;20709;-56
2022/08/08 03:50:18;;;;;;;3.33;1.50;;;15.10;96.00;;;;;;5032437;28;20212;-57
2022/08/08 03:52:45;;;;;;;1.90;1.10;;;15.00;96.10;;;;;;5032277;28;20209;-56
2022/08/08 03:55:15;;;;;;;1.53;1.20;;;15.00;96.30;;;;;;5032545;28;20214;-57
2022/08/08 03:57:46;;;;;;;1.10;1.00;;;15.00;96.50;;;;;;5032627;28;20230;-57
2022/08/08 04:00:15;;;;;;;1.90;1.20;;;15.00;96.70;;;;;;5036004;28;20210;-57
2022/08/08 04:02:42;;;;;;;2.63;1.10;;;14.80;97.00;;;;;;5036315;28;20210;-57
2022/08/08 04:05:09;;;;;;;1.73;1.20;;;14.80;97.20;;;;;;5035880;28;20216;-56
2022/08/08 04:07:36;;;;;;;1.53;1.00;;;14.70;97.40;;;;;;5035744;28;20605;-57
2022/08/08 04:10:04;;;;;;;0.83;0.83;;;14.70;97.70;;;;;;5035735;28;20221;-57
2022/08/08 04:12:32;;;;;;;1.43;1.33;;;14.70;97.90;;;;;;5035754;28;20209;-57
2022/08/08 04:14:59;;;;;;;3.77;1.37;;;14.60;98.30;;;;;;5035784;28;20214;-57
2022/08/08 04:17:26;;;;;;;1.10;1.00;;;14.50;98.70;;;;;;5035596;28;20230;-57
2022/08/08 04:19:55;;;;;;;2.50;0.97;;;14.50;99.00;;;;;;5035457;28;20591;-57
2022/08/08 04:22:21;;;;;;;5.23;1.50;;;14.50;99.20;;;;;;5035660;28;20264;-57
2022/08/08 04:24:48;;;;;;;2.73;1.10;;;14.50;99.40;;;;;;5036108;28;20669;-58
2022/08/08 04:27:15;;;;;;;2.63;1.10;;;14.50;99.40;;;;;;5036027;28;20230;-58
2022/08/08 04:29:43;;;;;;;2.23;1.30;;;14.60;99.60;;;;;;5035499;28;20203;-58
2022/08/08 04:32:13;;;;;;;1.93;1.17;;;14.60;99.80;;;;;;5036084;28;20213;-58
2022/08/08 04:34:40;;;;;;;2.80;1.10;;;14.50;99.90;;;;;;5035438;28;20241;-57
2022/08/08 04:37:06;;;;;;;1.80;1.07;;;14.50;99.90;;;;;;5035139;28;20713;-57
2022/08/08 04:39:33;;;;;;;1.83;1.30;;;14.60;99.90;;;;;;5035644;28;20202;-57
2022/08/08 04:42:00;;;;;;;4.07;1.30;;;14.70;99.90;;;;;;5035407;28;20209;-57
2022/08/08 04:44:27;;;;;;;1.83;1.37;;;14.80;99.90;;;;;;5035394;28;20210;-57
2022/08/08 04:46:55;;;;;;;2.33;1.33;;;15.00;99.90;;;;;;5035231;28;20234;-57
2022/08/08 04:49:22;;;;;;;2.60;1.37;;;15.00;99.80;;;;;;5035270;28;20206;-57
2022/08/08 04:51:48;;;;;;;2.37;1.20;;;15.10;99.80;;;;;;5035628;28;20217;-57
2022/08/08 04:54:15;;;;;;;4.37;1.50;;;15.20;99.60;;;;;;5035737;28;20210;-57
2022/08/08 04:56:42;;;;;;;1.67;1.30;;;15.30;99.60;;;;;;5035408;28;20597;-57
2022/08/08 04:59:08;;;;;;;2.73;1.47;;;15.40;99.50;;;;;;5035799;28;20206;-57
2022/08/08 05:01:35;;;;;;;1.40;1.30;;;15.50;99.30;;;;;;5035382;28;20574;-58
2022/08/08 05:04:03;;;;;;;1.40;1.30;;;15.60;99.10;;;;;;5035659;28;20206;-59
2022/08/08 05:06:30;;;;;;;1.50;1.40;;;15.70;98.90;;;;;;5035383;28;20230;-57
2022/08/08 05:08:57;;;;;;;2.97;1.33;;;15.80;98.80;;;;;;5035042;28;20214;-57
2022/08/08 05:11:24;;;;;;;2.40;1.47;;;15.90;98.60;;;;;;5034374;28;20207;-57
2022/08/08 05:13:51;;;;;;;2.20;1.50;;;15.90;98.50;;;;;;5034827;28;20207;-57
2022/08/08 05:16:18;;;;;;;4.37;1.63;;;16.10;98.30;;;;;;5034847;28;20233;-58
2022/08/08 05:18:45;;;;;;;2.50;1.53;;;16.20;98.20;;;;;;5035168;28;20240;-57
2022/08/08 05:21:13;;;;;;;3.88;1.75;;;16.30;98.50;;;;;;5033082;28;20210;-56
2022/08/08 05:23:40;;;;;;;6.30;1.67;;;16.40;98.40;;;;;;5033637;28;20211;-56
2022/08/08 05:26:07;;;;;;;2.13;1.40;;;16.50;98.30;;;;;;5033710;28;20233;-56
2022/08/08 05:28:34;;;;;;;5.65;1.35;;;16.50;98.10;;;;;;5035895;28;20213;-62
2022/08/08 05:31:00;;;;;;;1.85;1.30;;;16.60;98.00;;;;;;5034208;28;20213;-63
2022/08/08 05:33:27;;;;;;;1.38;1.20;;;16.70;97.90;;;;;;5035863;28;20658;-62
2022/08/08 05:35:54;;;;;;;3.10;1.52;;;16.80;97.80;;;;;;5037778;28;20226;-61
2022/08/08 05:38:25;;;;;;;1.75;1.50;;;16.90;97.50;;;;;;5050948;28;20247;-62
2022/08/08 05:40:54;;;;;;;1.40;1.30;;;17.10;97.20;;;;;;5055650;28;20583;-63
2022/08/08 05:43:25;;;;;;;3.17;1.80;;;17.80;97.00;;;;;;5054935;28;20205;-62
2022/08/08 05:45:55;;;;;;;3.72;1.40;;;19.80;94.50;;;;;;5054821;28;20689;-57
2022/08/08 05:48:22;;;;;;;5.88;1.52;;;22.10;90.80;;;;;;5053911;28;20391;-57
2022/08/08 05:50:49;;;;;;;1.67;1.25;;;24.30;83.30;;;;;;5053740;28;20205;-57
2022/08/08 05:53:17;;;;;;;2.70;1.50;;;26.20;71.90;;;;;;5053784;28;20480;-57
2022/08/08 05:55:46;;;;;;;2.72;1.20;;;27.50;65.60;;;;;;5053684;28;20216;-56
2022/08/08 05:58:13;;;;;;;3.40;1.25;;;28.20;62.50;;;;;;5053316;28;20237;-57
2022/08/08 06:00:44;;;;;;;2.25;1.15;;;29.20;59.90;;;;;;5053675;28;20240;-57
2022/08/08 06:03:18;;;;;;;4.47;1.27;;;30.50;57.30;;;;;;5053663;28;20212;-57
2022/08/08 06:05:49;;;;;;;4.82;1.30;;;31.80;53.70;;;;;;5053434;28;20215;-57
2022/08/08 06:08:19;;;;;;;1.80;1.02;;;32.80;51.60;;;;;;5053432;28;20259;-57
2022/08/08 06:10:48;;;;;;;2.63;0.90;;;33.80;50.00;;;;;;5052864;28;20213;-57
2022/08/08 06:13:17;;;;;;;2.10;1.33;;;34.60;47.00;;;;;;5053426;28;20212;-57
2022/08/08 06:15:48;;;;;;;3.53;1.13;;;35.20;46.00;;;;;;5053292;28;20213;-57
2022/08/08 06:18:15;;;;;;;2.17;1.20;;;35.70;45.30;;;;;;5053231;28;20233;-57
2022/08/08 06:20:43;;;;;;;1.20;0.93;;;36.30;44.20;;;;;;5052760;28;20205;-57
2022/08/08 06:23:10;;;;;;;2.63;1.10;;;36.90;43.10;;;;;;5052936;28;20296;-57
2022/08/08 06:25:41;;;;;;;2.38;1.10;;;37.30;42.10;;;;;;5053267;28;20206;-57
2022/08/08 06:28:14;;;;;;;2.17;1.02;;;37.70;41.90;;;;;;5053107;28;20213;-57
2022/08/08 06:30:43;;;;;;;1.58;1.40;;;38.10;41.20;;;;;;5052803;28;20637;-57
2022/08/08 06:33:12;;;;;;;1.13;1.00;;;38.80;40.70;;;;;;5052727;28;20232;-57
2022/08/08 06:35:45;;;;;;;2.80;1.13;;;39.20;39.60;;;;;;5052612;28;20202;-57
2022/08/08 06:38:16;;;;;;;1.80;1.20;;;39.50;39.40;;;;;;5052882;28;20233;-58
2022/08/08 06:40:44;;;;;;;3.25;1.00;;;40.00;38.70;;;;;;5052788;28;20202;-58
2022/08/08 06:43:14;;;;;;;3.90;1.60;;;40.30;38.30;;;;;;5052683;28;20300;-60
2022/08/08 06:45:42;;;;;;;3.22;1.42;;;40.60;37.90;;;;;;5052409;28;20213;-58
2022/08/08 06:48:08;;;;;;;1.50;1.00;;;40.70;37.70;;;;;;5052675;28;20288;-58
2022/08/08 06:50:35;;;;;;;2.28;1.15;;;41.10;37.30;;;;;;5052254;28;20224;-57
2022/08/08 06:53:04;;;;;;;2.70;1.20;;;41.10;37.60;;;;;;5052789;28;20255;-57
2022/08/08 06:55:31;;;;;;;2.90;1.17;;;41.40;37.30;;;;;;5052478;28;20208;-58
2022/08/08 06:57:58;;;;;;;1.92;1.10;;;42.00;36.50;;;;;;5052356;28;20255;-58
2022/08/08 07:00:26;;;;;;;1.80;1.20;;;42.60;36.30;;;;;;5052114;28;20619;-58
2022/08/08 07:02:57;;;;;;;2.35;1.20;;;43.10;35.50;;;;;;5052254;28;20788;-58
2022/08/08 07:05:25;;;;;;;1.35;1.20;;;43.50;35.00;;;;;;5052552;28;20212;-59
2022/08/08 07:08:03;;;;;;;2.25;1.20;;;42.50;36.40;;;;;;5052333;28;20221;-59
2022/08/08 07:10:35;;;;;;;2.03;1.33;;;41.70;36.70;;;;;;5052137;28;20699;-57
2022/08/08 07:13:06;;;;;;;2.50;1.40;;;40.50;38.20;;;;;;5052329;28;20436;-57
2022/08/08 07:15:38;;;;;;;3.42;1.52;;;40.50;38.20;;;;;;5052427;28;20209;-57
2022/08/08 07:18:06;;;;;;;4.95;1.88;;;41.10;37.40;;;;;;5052334;28;20221;-58
2022/08/08 07:20:37;;;;;;;2.42;1.20;;;41.90;36.80;;;;;;5052113;28;20233;-57
2022/08/08 07:23:10;;;;;;;2.28;1.50;;;41.90;36.30;;;;;;5052934;28;20205;-57
2022/08/08 07:25:40;;;;;;;2.25;1.50;;;41.50;36.90;;;;;;5051796;28;20217;-58
2022/08/08 07:28:10;;;;;;;2.40;1.33;;;42.00;36.30;;;;;;5052470;28;20193;-57
2022/08/08 07:30:39;;;;;;;2.00;1.40;;;42.80;35.90;;;;;;5051963;28;20434;-58
2022/08/08 07:33:07;;;;;;;1.63;1.30;;;43.50;35.10;;;;;;5051993;28;20604;-58
2022/08/08 07:35:36;;;;;;;2.95;1.23;;;44.00;34.40;;;;;;5052046;28;20656;-58
2022/08/08 07:38:04;;;;;;;2.85;1.40;;;44.00;34.20;;;;;;5051752;28;20263;-58
2022/08/08 07:40:31;;;;;;;3.30;1.35;;;43.80;34.50;;;;;;5052045;28;20205;-57
2022/08/08 07:42:59;;;;;;;2.92;1.20;;;43.90;34.10;;;;;;5052090;28;20215;-58
2022/08/08 07:45:25;;;;;;;1.85;1.40;;;44.20;34.00;;;;;;5052854;28;20227;-58
2022/08/08 07:47:53;;;;;;;2.58;1.20;;;44.60;33.60;;;;;;5052297;28;20279;-58
2022/08/08 07:50:21;;;;;;;1.38;1.25;;;44.70;33.70;;;;;;5052594;28;20677;-57
2022/08/08 07:52:50;;;;;;;2.88;1.40;;;44.60;33.60;;;;;;5052650;28;20213;-58
2022/08/08 07:55:23;;;;;;;2.85;1.33;;;44.60;33.70;;;;;;5053457;28;20220;-58
2022/08/08 07:58:01;;;;;;;2.25;1.48;;;44.70;33.60;;;;;;5053069;28;20711;-58
2022/08/08 08:00:32;;;;;;;1.65;1.10;;;44.90;33.30;;;;;;5053649;28;20240;-57
2022/08/08 08:03:05;;;;;;;1.95;1.17;;;45.30;33.10;;;;;;5053917;28;20213;-58
2022/08/08 08:05:36;;;;;;;2.88;1.23;;;45.30;32.70;;;;;;5054171;28;20248;-58
2022/08/08 08:08:06;;;;;;;2.97;1.30;;;45.00;32.90;;;;;;5053548;28;20196;-57
2022/08/08 08:10:34;;;;;;;2.03;1.35;;;44.10;33.60;;;;;;5053808;28;20201;-57
2022/08/08 08:13:21;;;;;;;4.97;1.20;;;42.70;35.10;;;;;;5053735;28;20215;-57
2022/08/08 08:15:53;;;;;;;1.60;1.17;;;41.60;36.00;;;;;;5053836;28;20228;-57
2022/08/08 08:18:23;;;;;;;1.92;1.40;;;40.70;37.00;;;;;;5053321;28;20229;-57
2022/08/08 08:20:53;;;;;;;2.05;1.30;;;41.20;36.50;;;;;;5053346;28;20201;-57
2022/08/08 08:23:20;;;;;;;3.05;1.58;;;41.50;36.10;;;;;;5052969;28;20209;-58
2022/08/08 08:25:46;;;;;;;2.50;2.00;;;40.60;37.30;;;;;;5053040;28;20262;-57
2022/08/08 08:28:13;;;;;;;3.50;1.27;;;39.90;37.90;;;;;;5052970;28;20204;-57
2022/08/08 08:30:40;;;;;;;1.45;1.25;;;39.50;38.20;;;;;;5052900;28;20688;-57
2022/08/08 08:33:07;;;;;;;2.42;1.17;;;39.80;37.90;;;;;;5053057;28;20201;-57
2022/08/08 08:35:35;;;;;;;2.15;1.33;;;40.40;37.40;;;;;;5052993;28;20216;-57
2022/08/08 08:38:02;;;;;;;2.20;1.40;;;40.60;36.90;;;;;;5053177;28;20222;-57
2022/08/08 08:40:31;;;;;;;2.72;1.50;;;39.70;38.20;;;;;;5052800;28;20606;-57
2022/08/08 08:42:58;;;;;;;2.80;1.50;;;38.40;39.50;;;;;;5052390;28;20206;-57
2022/08/08 08:45:26;;;;;;;1.95;1.40;;;36.50;41.40;;;;;;5053579;28;20209;-57
2022/08/08 08:47:54;;;;;;;1.40;1.30;;;34.70;44.00;;;;;;5056334;28;20241;-57
2022/08/08 08:50:22;;;;;;;3.28;1.40;;;33.30;46.10;;;;;;5055375;28;20202;-57
2022/08/08 08:52:52;;;;;;;3.03;1.85;;;32.00;47.60;;;;;;5055606;28;20304;-57
2022/08/08 08:55:19;;;;;;;2.85;1.55;;;31.00;49.60;;;;;;5054946;28;20210;-57
2022/08/08 08:57:49;;;;;;;1.50;1.40;;;30.20;51.20;;;;;;5054731;28;20236;-57
2022/08/08 09:00:17;;;;;;;1.73;1.50;;;29.50;52.20;;;;;;5054586;28;20205;-57
2022/08/08 09:02:44;;;;;;;2.22;1.65;;;29.10;53.00;;;;;;5054763;28;20243;-57
2022/08/08 09:05:14;;;;;;;4.05;1.50;;;28.80;53.60;;;;;;5054486;28;20202;-57
2022/08/08 09:07:42;;;;;;;3.15;1.42;;;28.50;54.30;;;;;;5054585;28;20316;-57
2022/08/08 09:10:14;;;;;;;2.03;1.60;;;28.30;55.30;;;;;;5054202;28;20279;-57
2022/08/08 09:12:44;;;;;;;4.55;1.77;;;28.30;55.40;;;;;;5052301;28;20214;-60
2022/08/08 09:15:12;;;;;;;1.58;1.48;;;28.20;55.70;;;;;;5054311;28;20217;-61
2022/08/08 09:17:39;;;;;;;3.13;1.50;;;28.20;55.90;;;;;;5040478;28;20233;-63
2022/08/08 09:20:07;;;;;;;2.25;1.20;;;28.20;55.70;;;;;;5034659;28;20209;-63
2022/08/08 09:22:34;;;;;;;1.60;1.35;;;28.30;56.00;;;;;;5034211;28;20214;-62
2022/08/08 09:25:01;;;;;;;3.00;1.90;;;28.40;55.80;;;;;;5034600;28;20623;-59
2022/08/08 09:27:30;;;;;;;1.55;1.45;;;28.40;55.80;;;;;;5034010;28;20229;-58
2022/08/08 09:30:02;;;;;;;2.72;1.50;;;28.40;55.50;;;;;;5033281;28;20575;-57
2022/08/08 09:32:35;;;;;;;3.60;1.70;;;28.40;55.60;;;;;;5032866;28;20375;-57
2022/08/08 09:35:05;;;;;;;3.15;1.60;;;28.40;55.20;;;;;;5033862;28;20275;-57
2022/08/08 09:37:42;;;;;;;4.00;1.60;;;28.30;55.60;;;;;;5033411;28;20253;-57
2022/08/08 09:40:10;;;;;;;2.00;1.58;;;28.10;56.20;;;;;;5033341;28;20638;-57
2022/08/08 09:42:41;;;;;;;2.90;1.25;;;27.90;55.80;;;;;;5033307;28;20587;-57
2022/08/08 09:45:10;;;;;;;1.55;1.45;;;27.90;56.00;;;;;;5032449;28;20218;-58
2022/08/08 09:47:38;;;;;;;3.13;1.52;;;27.90;56.00;;;;;;5033575;28;20237;-59
2022/08/08 09:50:09;;;;;;;2.47;1.40;;;28.00;55.80;;;;;;5033293;28;20244;-58
2022/08/08 09:52:38;;;;;;;4.20;1.60;;;28.10;55.20;;;;;;5033272;28;20581;-58
2022/08/08 09:55:06;;;;;;;1.58;1.42;;;28.30;54.40;;;;;;5032962;28;20217;-57
2022/08/08 09:57:35;;;;;;;1.27;1.17;;;28.40;54.90;;;;;;5032217;28;20648;-58
2022/08/08 10:00:06;;;;;;;1.67;1.10;;;28.50;52.20;;;;;;5033168;28;20238;-58
2022/08/08 10:02:35;;;;;;;2.42;1.10;;;28.60;51.30;;;;;;5033332;28;20211;-58
2022/08/08 10:05:08;;;;;;;1.58;1.08;;;28.60;49.90;;;;;;5032897;28;20206;-58
2022/08/08 10:07:36;;;;;;;1.92;1.00;;;28.70;48.60;;;;;;5032769;28;20428;-58
2022/08/08 10:10:03;;;;;;;5.75;1.17;;;28.90;48.10;;;;;;5032287;28;20588;-58
2022/08/08 10:12:35;;;;;;;2.70;1.10;;;29.10;47.50;;;;;;5033147;28;20293;-58
2022/08/08 10:15:05;;;;;;;3.80;1.00;;;29.10;47.20;;;;;;5032830;28;20233;-58
2022/08/08 10:17:32;;;;;;;1.13;1.00;;;29.10;47.40;;;;;;5032740;28;20322;-58
2022/08/08 10:20:01;;;;;;;1.77;1.30;;;29.00;47.40;;;;;;5032713;28;20210;-58
2022/08/08 10:22:28;;;;;;;2.40;0.98;;;29.00;47.70;;;;;;5032193;28;20206;-58
2022/08/08 10:25:02;;;;;;;1.73;0.90;;;29.20;47.40;;;;;;5032511;28;20221;-58
2022/08/08 10:27:29;;;;;;;1.05;0.95;;;29.50;46.80;;;;;;5032971;28;20226;-58
2022/08/08 10:30:01;;;;;;;0.80;0.80;;;29.80;46.40;;;;;;5032168;28;20198;-57
2022/08/08 10:32:34;;;;;;;1.30;1.10;;;30.00;45.90;;;;;;5032609;28;20686;-58
2022/08/08 10:35:03;;;;;;;2.53;1.20;;;30.30;46.00;;;;;;5032159;28;20210;-58
2022/08/08 10:37:32;;;;;;;2.58;1.15;;;30.30;46.10;;;;;;5032319;28;20734;-58
2022/08/08 10:40:00;;;;;;;1.92;1.20;;;30.30;46.00;;;;;;5032169;28;20229;-58
2022/08/08 10:42:33;;;;;;;1.52;1.20;;;30.30;46.00;;;;;;5032471;28;20210;-58
2022/08/08 10:45:02;;;;;;;1.95;0.90;;;30.30;45.90;;;;;;5032177;28;20292;-59
2022/08/08 10:47:30;;;;;;;1.55;1.30;;;30.20;46.40;;;;;;5031499;28;20245;-57
2022/08/08 10:49:58;;;;;;;2.83;1.05;;;30.20;46.50;;;;;;5031482;28;20210;-56
2022/08/08 10:52:26;;;;;;;1.23;1.10;;;30.30;45.60;;;;;;5031941;28;20237;-58
2022/08/08 10:54:54;;;;;;;3.90;1.38;;;30.30;45.60;;;;;;5031694;28;20213;-57
2022/08/08 10:57:21;;;;;;;3.17;1.40;;;30.30;46.10;;;;;;5031585;28;20222;-57
2022/08/08 10:59:52;;;;;;;1.77;1.30;;;30.30;46.30;;;;;;5031512;28;20222;-58
2022/08/08 11:02:23;;;;;;;1.55;1.30;;;30.30;46.30;;;;;;5031255;28;20600;-57
2022/08/08 11:04:52;;;;;;;3.63;1.35;;;30.40;46.40;;;;;;5031767;28;20245;-57
2022/08/08 11:07:29;;;;;;;5.63;1.20;;;30.50;46.40;;;;;;5031263;28;20226;-57
2022/08/08 11:10:00;;;;;;;1.33;0.98;;;30.40;46.50;;;;;;5031479;28;20205;-57
2022/08/08 11:12:27;;;;;;;1.45;1.00;;;30.40;46.50;;;;;;5031687;28;20210;-57
2022/08/08 11:14:56;;;;;;;1.75;1.30;;;30.30;46.50;;;;;;5031388;28;20735;-59
2022/08/08 11:17:25;;;;;;;1.42;1.00;;;30.30;46.40;;;;;;5031393;28;20230;-58
2022/08/08 11:19:54;;;;;;;2.60;1.20;;;30.50;46.00;;;;;;5031368;28;20226;-58
2022/08/08 11:22:25;;;;;;;2.00;1.27;;;30.60;45.70;;;;;;5031392;28;20202;-58
2022/08/08 11:24:55;;;;;;;1.55;1.10;;;30.60;45.40;;;;;;5031782;28;20256;-58
2022/08/08 11:27:25;;;;;;;3.67;1.10;;;30.50;45.20;;;;;;5031078;28;20256;-58
2022/08/08 11:29:56;;;;;;;1.33;0.93;;;30.40;44.70;;;;;;5031680;28;20230;-58
2022/08/08 11:32:26;;;;;;;0.90;0.90;;;30.20;44.60;;;;;;5031421;28;20296;-57
2022/08/08 11:35:04;;;;;;;4.10;1.40;;;30.10;45.10;;;;;;5031399;28;20210;-58
2022/08/08 11:37:31;;;;;;;4.10;1.30;;;30.30;44.80;;;;;;5031123;28;20268;-58
2022/08/08 11:40:00;;;;;;;1.05;0.95;;;30.20;44.80;;;;;;5031303;28;20230;-57
2022/08/08 11:42:28;;;;;;;1.38;1.15;;;30.30;44.60;;;;;;5031800;28;20206;-58
2022/08/08 11:44:56;;;;;;;1.50;1.00;;;30.30;44.70;;;;;;5033573;28;20619;-58
2022/08/08 11:47:24;;;;;;;2.40;1.00;;;30.30;44.80;;;;;;5031726;28;20237;-61
2022/08/08 11:49:53;;;;;;;3.35;1.10;;;30.20;44.60;;;;;;5032296;28;20225;-57
2022/08/08 11:52:22;;;;;;;1.05;0.80;;;30.20;44.60;;;;;;5031890;28;20252;-58
2022/08/08 11:54:48;;;;;;;1.05;0.90;;;30.10;44.50;;;;;;5032490;28;20260;-58
2022/08/08 11:57:20;;;;;;;1.92;1.33;;;30.30;44.40;;;;;;5032382;28;20236;-58
2022/08/08 11:59:52;;;;;;;3.15;0.80;;;30.10;44.50;;;;;;5032571;28;20706;-58
2022/08/08 12:02:20;;;;;;;5.75;1.38;;;29.90;44.40;;;;;;5032487;28;20210;-57
2022/08/08 12:04:46;;;;;;;4.25;1.10;;;29.80;44.30;;;;;;5032308;28;20206;-58
2022/08/08 12:07:13;;;;;;;1.33;1.00;;;29.80;44.60;;;;;;5031679;28;20233;-58
2022/08/08 12:09:41;;;;;;;4.18;1.20;;;30.00;44.50;;;;;;5031979;28;20203;-58
2022/08/08 12:12:09;;;;;;;1.45;1.00;;;30.30;43.50;;;;;;5031888;28;20206;-58
2022/08/08 12:14:35;;;;;;;1.55;1.13;;;30.50;43.10;;;;;;5032128;28;20210;-58
2022/08/08 12:17:02;;;;;;;1.27;0.90;;;30.60;43.70;;;;;;5031837;28;20646;-57
2022/08/08 12:19:29;;;;;;;0.73;0.70;;;30.70;43.10;;;;;;5032975;28;20230;-58
2022/08/08 12:22:06;;;;;;;1.70;0.70;;;30.50;43.30;;;;;;5035879;28;20236;-58
2022/08/08 12:24:48;;;;;;;4.88;1.20;;;30.20;43.50;;;;;;5035660;28;20213;-58
2022/08/08 12:27:18;;;;;;;1.33;0.93;;;30.20;43.50;;;;;;5036035;28;20316;-58
2022/08/08 12:29:55;;;;;;;3.67;1.10;;;30.20;43.50;;;;;;5035208;28;20209;-58
2022/08/08 12:32:23;;;;;;;1.73;1.00;;;30.00;43.90;;;;;;5035385;28;20217;-58
2022/08/08 12:35:01;;;;;;;3.45;1.05;;;30.00;43.80;;;;;;5035464;28;20702;-58
2022/08/08 12:37:29;;;;;;;1.25;1.10;;;30.20;43.60;;;;;;5035676;28;20225;-57
2022/08/08 12:40:00;;;;;;;3.13;1.05;;;30.40;43.30;;;;;;5035146;28;20222;-58
2022/08/08 12:42:27;;;;;;;2.47;1.00;;;30.50;43.30;;;;;;5034982;28;20210;-57
2022/08/08 12:45:03;;;;;;;3.05;1.08;;;30.50;42.90;;;;;;5035341;28;20217;-58
2022/08/08 12:47:30;;;;;;;3.50;1.05;;;30.40;43.00;;;;;;5035018;28;20240;-58
2022/08/08 12:49:57;;;;;;;2.50;1.20;;;30.40;42.90;;;;;;5035111;28;20210;-58
2022/08/08 12:52:24;;;;;;;1.50;1.00;;;30.40;43.00;;;;;;5034771;28;20213;-58
2022/08/08 12:55:04;;;;;;;4.38;3.83;;;30.40;42.90;;;;;;5035508;28;20213;-60
2022/08/08 12:57:31;;;;;;;1.90;1.13;;;30.40;42.90;;;;;;5035169;28;20261;-58
2022/08/08 12:59:58;;;;;;;2.10;1.15;;;30.40;42.40;;;;;;5034846;28;20226;-59
2022/08/08 13:02:26;;;;;;;1.95;1.02;;;30.40;42.60;;;;;;5034461;28;20211;-59
2022/08/08 13:04:54;;;;;;;2.22;1.23;;;30.30;42.30;;;;;;5035245;28;20210;-59
2022/08/08 13:07:32;;;;;;;2.30;1.10;;;30.40;42.40;;;;;;5034724;28;20257;-58
2022/08/08 13:10:00;;;;;;;3.03;1.10;;;30.40;42.30;;;;;;5034785;28;20202;-59
2022/08/08 13:12:31;;;;;;;4.20;1.15;;;30.60;42.00;;;;;;5034804;28;20209;-58
2022/08/08 13:15:01;;;;;;;4.15;1.10;;;30.60;41.90;;;;;;5034820;28;20268;-59
2022/08/08 13:17:30;;;;;;;4.15;0.90;;;30.70;42.20;;;;;;5034480;28;20233;-58
2022/08/08 13:19:58;;;;;;;3.45;0.95;;;30.70;42.20;;;;;;5034301;28;20705;-59
2022/08/08 13:22:25;;;;;;;2.22;1.00;;;30.70;42.60;;;;;;5034471;28;20209;-58
2022/08/08 13:24:52;;;;;;;1.98;0.90;;;30.60;41.60;;;;;;5034535;28;20582;-59